Sumari Climatol˛gic Mensual del mes 7 del any 2008
Les temperatures estan en ║C la humitat relativa en %
La plutja en l/m^2 y el vent en m/s.
Data T. Mitja T.Max H.T.Max T. Min. H.T. Min. P. Reixiu Sensasiˇ fred Sensasiˇ Xafogor Plutja Vel. Vent Ratxa H. Ratxa Dir. Ratxa Dir. Dominant Pressiˇ Mitja Hum.
01/07/2008 31 4 35 8 15:50 24 7 8:30 11 8 31 8 34 38 0 1 26 9 68 19:10:00 SE SE 1014 5 30 34 848
02/07/2008 29 1 36 8 16:50 20 6 6:20 12 2 30 2 33 55 0 1 07 11 14 19:20:00 SE S 1012 2 35 3 40 104
03/07/2008 26 8 33 6 16:40 21 6 23:50 10 1 28 3 31 19 0 1 71 9 34 14:20:00 SO SO 1012 5 35 33 624
05/07/2008 28 2 36 4 15:50 20 6 5:20 17 2 29 4 37 26 0 1 55 9 04 17:50:00 N NE 1014 3 51 6 32 544
06/07/2008 28 9 36 3 17:30 21 5 5:20 15 3 29 9 35 74 0 1 45 9 92 15:30:00 SO S 1011 5 43 7 35 712
07/07/2008 25 7 32 1 15:10 21 7:40 13 1 27 5 33 09 0 1 63 10 58 18:20:00 N E 1013 7 45 6 38 088
08/07/2008 24 28 3 14:40 20 6 6:40 18 8 26 2 39 08 0 1 64 8 88 13:50:00 NE NE 1018 1 72 6 31 968
09/07/2008 25 4 31 4 18:00 19 6 7:00 17 6 27 5 37 49 0 1 13 7 3 16:00:00 NE NE 1018 6 62 3 26 28
10/07/2008 26 2 33 6 16:00 20 6:40 18 2 28 2 38 12 0 1 05 6 62 18:00:00 N NE 1016 61 6 23 832
11/07/2008 29 1 37 7 17:10 20 1 4:50 13 7 30 3 34 6 0 1 02 8 96 18:30:00 SO S 1013 38 9 32 256
16/07/2008 20 8 21 6 17:20 19 4 23:40 15 9 23 6 36 2 0 4 1 71 9 08 13:30:00 N NE 1020 6 73 8 32 688
17/07/2008 21 5 27 2 17:30 17 6:50 14 9 25 3 34 69 0 0 77 5 76 15:40:00 N NE 1017 1 66 20 736
18/07/2008 24 6 31 1 15:50 18 4 6:50 16 1 27 35 91 0 1 19 7 42 15:10:00 N NE 1016 3 59 2 26 712
19/07/2008 26 1 32 8 16:30 21 4 6:50 18 5 28 3 38 46 0 0 82 5 64 14:20:00 N NE 1017 5 62 9 20 304
20/07/2008 28 3 36 7 18:20 19 8 5:20 14 7 29 8 35 08 0 0 81 5 6 15:10:00 NE NE 1016 43 5 20 16
21/07/2008 25 30 3 17:00 22 1 4:10 19 27 39 13 0 1 63 7 78 18:00:00 NE NE 1018 1 69 1 28 008
22/07/2008 25 2 31 6 17:30 21 3 5:50 18 2 27 7 38 2 0 0 83 7 18 18:30:00 NE NE 1020 2 65 4 25 848
24/07/2008 27 2 39 2 17:00 19 3 6:20 17 1 29 37 01 0 0 86 7 42 15:40:00 O E 1013 5 54 26 712
25/07/2008 29 3 35 9 18:00 22 5 1:40 8 5 30 2 31 49 0 1 72 10 08 16:50:00 SO SO 1012 2 27 2 36 288
26/07/2008 28 8 35 15:00 22 9 0:40 14 4 29 9 35 04 0 1 51 9 8 4:40:00 S NE 1013 7 41 3 35 28
27/07/2008 26 6 34 16:20 21 5 7:20 19 3 28 4 39 28 0 1 15 8 14 18:00:00 N NE 1015 5 64 3 29 304
28/07/2008 27 5 35 1 17:30 21 7:10 19 2 29 1 39 15 0 1 05 7 14 18:10:00 NE NE 1014 4 60 6 25 704
29/07/2008 25 4 30 7 14:30 22 3 7:20 19 27 4 39 1 0 1 46 10 56 16:00:00 NE NE 1015 4 67 7 38 016
30/07/2008 25 7 32 3 15:50 21 7 7:10 19 3 27 7 39 44 0 1 14 7 36 15:40:00 NE NE 1016 6 68 1 26 496